Time;durP1;ratioP1;P1;durP2;ratioP2;P2;SDS_P1;SDS_P2;PMS_P1;PMS_P2;Temp;Humidity;BMP_temperature;BMP_pressure;BME280_temperature;BME280_humidity;BME280_pressure;Samples;Min_cycle;Max_cycle;Signal;HPM_P1;HPM_P2
2022/06/19 00:02:05;;;;;;;9.23;6.50;;;26.20;99.90;;;;;;4951137;29;20023;-75
2022/06/19 00:04:32;;;;;;;9.25;7.15;;;26.20;99.90;;;;;;4953369;29;20019;-76
2022/06/19 00:06:58;;;;;;;9.13;6.80;;;26.20;99.90;;;;;;4950828;29;20082;-75
2022/06/19 00:09:25;;;;;;;8.85;6.32;;;26.20;99.90;;;;;;4951922;28;20035;-75
2022/06/19 00:11:52;;;;;;;8.27;7.18;;;26.10;99.90;;;;;;4952219;29;20050;-75
2022/06/19 00:14:18;;;;;;;8.95;7.18;;;26.20;99.90;;;;;;4952884;29;20027;-75
2022/06/19 00:16:43;;;;;;;13.90;6.93;;;26.20;99.90;;;;;;4954306;28;20031;-76
2022/06/19 00:19:09;;;;;;;7.38;6.32;;;26.20;99.90;;;;;;4952293;29;20027;-76
2022/06/19 00:21:35;;;;;;;10.45;7.20;;;26.10;99.90;;;;;;4948270;28;20027;-76
2022/06/19 00:24:01;;;;;;;8.80;6.45;;;26.20;99.90;;;;;;4952597;29;20030;-76
2022/06/19 00:26:26;;;;;;;8.10;6.90;;;26.00;99.90;;;;;;4952390;29;20039;-76
2022/06/19 00:28:52;;;;;;;8.38;6.82;;;26.00;99.90;;;;;;4954505;29;20055;-76
2022/06/19 00:31:18;;;;;;;9.93;7.00;;;26.00;99.90;;;;;;4952115;29;20055;-76
2022/06/19 00:33:44;;;;;;;10.88;6.93;;;26.10;99.90;;;;;;4952230;29;20043;-76
2022/06/19 00:36:11;;;;;;;10.30;7.13;;;25.90;99.90;;;;;;4951150;29;20578;-76
2022/06/19 00:38:36;;;;;;;9.00;7.07;;;25.90;99.90;;;;;;4952034;29;20055;-76
2022/06/19 00:41:03;;;;;;;9.48;7.05;;;25.90;99.90;;;;;;4954079;29;20070;-76
2022/06/19 00:43:29;;;;;;;10.77;6.97;;;25.90;99.90;;;;;;4951965;29;20539;-75
2022/06/19 00:46:01;;;;;;;13.38;7.43;;;25.90;99.90;;;;;;4952307;29;20445;-75
2022/06/19 00:48:37;;;;;;;13.35;7.18;;;25.90;99.90;;;;;;4952220;29;20023;-75
2022/06/19 00:51:05;;;;;;;7.78;6.97;;;25.80;99.90;;;;;;4951428;28;20054;-75
2022/06/19 00:53:42;;;;;;;9.55;7.13;;;25.80;99.90;;;;;;4952174;29;20027;-75
2022/06/19 00:56:15;;;;;;;8.38;6.95;;;25.70;99.90;;;;;;4950107;29;20027;-75
2022/06/19 00:58:41;;;;;;;14.23;7.82;;;25.70;99.90;;;;;;4948792;29;20028;-75
2022/06/19 01:01:12;;;;;;;11.10;7.50;;;25.60;99.90;;;;;;4947793;29;20035;-75
2022/06/19 01:04:09;;;;;;;9.70;7.32;;;25.70;99.90;;;;;;4952049;29;20035;-75
2022/06/19 01:06:35;;;;;;;9.40;7.32;;;25.60;99.90;;;;;;4950406;29;20040;-75
2022/06/19 01:09:01;;;;;;;7.95;7.05;;;25.60;99.90;;;;;;4951831;28;20023;-76
2022/06/19 01:11:33;;;;;;;9.90;6.90;;;25.50;99.90;;;;;;4951783;29;20059;-76
2022/06/19 01:14:00;;;;;;;11.25;7.30;;;25.50;99.90;;;;;;4953869;29;20027;-76
2022/06/19 01:16:26;;;;;;;9.55;7.13;;;25.50;99.90;;;;;;4951950;29;20400;-76
2022/06/19 01:18:52;;;;;;;12.68;7.50;;;25.40;99.90;;;;;;4951764;29;20027;-76
2022/06/19 01:21:40;;;;;;;10.10;7.43;;;25.40;99.90;;;;;;4926233;29;20126;-75
2022/06/19 01:24:35;;;;;;;8.60;7.47;;;25.40;99.90;;;;;;4955393;29;20544;-75
2022/06/19 01:27:02;;;;;;;7.82;7.03;;;25.40;99.90;;;;;;4944074;29;21309;-75
2022/06/19 01:29:32;;;;;;;9.55;7.15;;;25.40;99.90;;;;;;4955263;29;20039;-75
2022/06/19 01:32:02;;;;;;;8.65;7.57;;;25.30;99.90;;;;;;4957579;29;20436;-75
2022/06/19 01:34:39;;;;;;;8.32;6.97;;;25.20;99.90;;;;;;4953224;28;20309;-75
2022/06/19 01:37:08;;;;;;;9.13;7.18;;;25.20;99.90;;;;;;4955133;29;20085;-75
2022/06/19 01:39:47;;;;;;;9.95;7.25;;;25.10;99.90;;;;;;4954111;28;20059;-75
2022/06/19 01:42:14;;;;;;;11.75;8.05;;;25.20;99.90;;;;;;4952575;28;20043;-75
2022/06/19 01:44:41;;;;;;;10.02;7.53;;;25.10;99.90;;;;;;4955490;28;20122;-75
2022/06/19 01:47:07;;;;;;;8.70;7.18;;;25.00;99.90;;;;;;4956659;29;20035;-75
2022/06/19 01:49:35;;;;;;;10.13;7.55;;;25.00;99.90;;;;;;4954152;28;20027;-75
2022/06/19 01:52:03;;;;;;;8.20;6.90;;;24.90;99.90;;;;;;4954702;29;20038;-75
2022/06/19 01:54:38;;;;;;;10.02;7.47;;;24.90;99.90;;;;;;4954992;29;20101;-75
2022/06/19 01:57:08;;;;;;;10.50;7.63;;;24.80;99.90;;;;;;4955051;28;20030;-75
2022/06/19 01:59:36;;;;;;;9.85;7.50;;;24.80;99.90;;;;;;4939972;29;20045;-75
2022/06/19 02:02:03;;;;;;;8.32;7.32;;;24.80;99.90;;;;;;4952020;28;20062;-75
2022/06/19 02:04:31;;;;;;;12.35;7.38;;;24.70;99.90;;;;;;4955338;29;20035;-75
2022/06/19 02:06:59;;;;;;;8.90;7.45;;;24.70;99.90;;;;;;4954424;29;20026;-75
2022/06/19 02:09:24;;;;;;;12.10;7.68;;;24.60;99.90;;;;;;4954761;29;20067;-75
2022/06/19 02:11:51;;;;;;;11.27;8.07;;;24.60;99.90;;;;;;4954244;28;20023;-75
2022/06/19 02:14:19;;;;;;;9.15;7.45;;;24.60;99.90;;;;;;4955149;29;20131;-75
2022/06/19 02:16:47;;;;;;;12.80;8.27;;;24.60;99.90;;;;;;4954859;29;20031;-75
2022/06/19 02:19:12;;;;;;;8.55;7.30;;;24.50;99.90;;;;;;4954310;28;20470;-75
2022/06/19 02:21:41;;;;;;;10.38;7.43;;;24.50;99.90;;;;;;4954202;29;20055;-75
2022/06/19 02:24:09;;;;;;;11.27;7.60;;;24.40;99.90;;;;;;4954744;29;20455;-76
2022/06/19 02:26:37;;;;;;;10.20;7.80;;;24.40;99.90;;;;;;4954687;29;20039;-75
2022/06/19 02:29:09;;;;;;;8.85;7.80;;;24.40;99.90;;;;;;4956606;29;20110;-75
2022/06/19 02:31:36;;;;;;;11.20;7.75;;;24.40;99.90;;;;;;4953063;28;20058;-75
2022/06/19 02:34:06;;;;;;;8.90;7.57;;;24.30;99.90;;;;;;4954028;28;20019;-76
2022/06/19 02:36:37;;;;;;;9.70;7.88;;;24.40;99.90;;;;;;4953765;29;20465;-75
2022/06/19 02:39:41;;;;;;;8.50;7.40;;;24.40;99.90;;;;;;4954239;29;20023;-75
2022/06/19 02:42:22;;;;;;;9.32;7.28;;;24.50;99.90;;;;;;4943638;29;20027;-76
2022/06/19 02:44:57;;;;;;;10.43;7.60;;;24.50;99.90;;;;;;4954171;29;20102;-75
2022/06/19 02:47:24;;;;;;;13.57;7.63;;;24.50;99.90;;;;;;4954077;29;20027;-76
2022/06/19 02:49:50;;;;;;;9.27;7.68;;;24.50;99.90;;;;;;4954742;29;20032;-75
2022/06/19 02:52:16;;;;;;;9.63;7.60;;;24.50;99.90;;;;;;4953162;28;20510;-76
2022/06/19 02:54:41;;;;;;;11.70;7.50;;;24.50;99.90;;;;;;4953844;29;20484;-75
2022/06/19 02:57:09;;;;;;;11.65;8.30;;;24.40;99.90;;;;;;4953944;29;20127;-75
2022/06/19 02:59:35;;;;;;;9.90;7.80;;;24.40;99.90;;;;;;4953914;29;20035;-75
2022/06/19 03:02:01;;;;;;;10.63;8.05;;;24.50;99.90;;;;;;4955783;29;20503;-75
2022/06/19 03:04:33;;;;;;;9.57;7.95;;;24.40;99.90;;;;;;4951085;28;20050;-75
2022/06/19 03:06:58;;;;;;;8.68;7.43;;;24.40;99.90;;;;;;4953989;29;20062;-75
2022/06/19 03:09:24;;;;;;;10.05;8.20;;;24.40;99.90;;;;;;4953756;29;20058;-75
2022/06/19 03:11:50;;;;;;;11.77;8.05;;;24.30;99.90;;;;;;4953786;29;20067;-75
2022/06/19 03:14:16;;;;;;;11.88;8.20;;;24.20;99.90;;;;;;4953848;29;20032;-75
2022/06/19 03:16:42;;;;;;;11.02;8.45;;;24.20;99.90;;;;;;4955414;29;20051;-75
2022/06/19 03:19:07;;;;;;;9.15;7.70;;;24.10;99.90;;;;;;4952416;29;20070;-76
2022/06/19 03:21:33;;;;;;;11.73;8.02;;;24.10;99.90;;;;;;4953454;29;20629;-75
2022/06/19 03:23:59;;;;;;;10.45;8.10;;;24.20;99.90;;;;;;4953452;29;20039;-75
2022/06/19 03:26:26;;;;;;;10.57;8.60;;;24.30;99.90;;;;;;4953484;29;20119;-76
2022/06/19 03:28:53;;;;;;;9.73;8.10;;;24.20;99.90;;;;;;4955271;29;20027;-75
2022/06/19 03:31:21;;;;;;;9.18;7.97;;;24.20;99.90;;;;;;4953087;28;20520;-75
2022/06/19 03:33:47;;;;;;;12.10;8.18;;;24.20;99.90;;;;;;4951145;29;20019;-75
2022/06/19 03:36:13;;;;;;;9.30;8.30;;;24.20;99.90;;;;;;4952120;28;20038;-75
2022/06/19 03:38:38;;;;;;;9.70;8.10;;;24.10;99.90;;;;;;4953179;29;20411;-75
2022/06/19 03:41:04;;;;;;;10.55;8.10;;;24.10;99.90;;;;;;4955219;29;20102;-75
2022/06/19 03:43:33;;;;;;;10.30;8.43;;;24.10;99.90;;;;;;4953193;28;20041;-75
2022/06/19 03:46:12;;;;;;;11.23;8.23;;;24.00;99.90;;;;;;4953099;29;20031;-75
2022/06/19 03:48:39;;;;;;;9.00;8.10;;;24.10;99.90;;;;;;4952352;28;20030;-75
2022/06/19 03:51:05;;;;;;;9.85;7.97;;;24.10;99.90;;;;;;4953282;28;20051;-75
2022/06/19 03:53:31;;;;;;;9.32;7.93;;;24.10;99.90;;;;;;4952888;29;20531;-75
2022/06/19 03:55:57;;;;;;;9.57;8.20;;;24.10;99.90;;;;;;4955032;29;20034;-75
2022/06/19 03:58:23;;;;;;;9.32;7.80;;;24.00;99.90;;;;;;4952638;29;20031;-75
2022/06/19 04:00:48;;;;;;;8.95;8.00;;;24.10;99.90;;;;;;4952557;29;20138;-75
2022/06/19 04:03:14;;;;;;;9.77;8.10;;;24.10;99.90;;;;;;4949770;29;20035;-75
2022/06/19 04:05:39;;;;;;;11.52;8.30;;;24.10;99.90;;;;;;4952806;29;20054;-75
2022/06/19 04:08:05;;;;;;;10.07;8.40;;;24.10;99.90;;;;;;4954233;29;20066;-75
2022/06/19 04:10:31;;;;;;;11.13;8.38;;;24.10;99.90;;;;;;4953043;29;20039;-75
2022/06/19 04:12:56;;;;;;;12.25;8.35;;;24.00;99.90;;;;;;4952670;28;20039;-75
2022/06/19 04:15:22;;;;;;;8.98;8.07;;;24.00;99.90;;;;;;4951476;28;20031;-75
2022/06/19 04:17:48;;;;;;;10.18;8.50;;;24.10;99.90;;;;;;4950264;29;20527;-75
2022/06/19 04:20:14;;;;;;;10.07;8.25;;;24.10;99.90;;;;;;4953434;29;20051;-75
2022/06/19 04:22:40;;;;;;;10.45;8.60;;;24.10;99.90;;;;;;4953807;29;20027;-75
2022/06/19 04:25:13;;;;;;;12.20;9.75;;;24.10;99.90;;;;;;4952382;28;20098;-75
2022/06/19 04:27:40;;;;;;;11.00;8.70;;;24.10;99.90;;;;;;4952257;29;20031;-75
2022/06/19 04:30:06;;;;;;;9.88;8.18;;;24.10;99.90;;;;;;4952320;29;20051;-75
2022/06/19 04:32:32;;;;;;;9.20;8.30;;;24.10;99.90;;;;;;4941186;28;20036;-75
2022/06/19 04:34:57;;;;;;;10.75;8.23;;;24.10;99.90;;;;;;4954367;29;20086;-75
2022/06/19 04:37:23;;;;;;;10.05;9.02;;;24.10;99.90;;;;;;4952149;29;20039;-75
2022/06/19 04:39:48;;;;;;;11.85;9.05;;;24.10;99.90;;;;;;4952313;29;20039;-75
2022/06/19 04:42:14;;;;;;;11.50;8.68;;;24.10;99.90;;;;;;4952281;29;20484;-75
2022/06/19 04:44:40;;;;;;;10.13;9.07;;;24.10;99.90;;;;;;4952334;29;20034;-75
2022/06/19 04:47:06;;;;;;;10.15;8.45;;;24.10;99.90;;;;;;4951948;29;20027;-75
2022/06/19 04:49:31;;;;;;;9.23;8.30;;;24.20;99.90;;;;;;4951775;28;20037;-75
2022/06/19 04:51:57;;;;;;;11.45;8.88;;;24.20;99.90;;;;;;4952013;29;20058;-75
2022/06/19 04:54:22;;;;;;;9.70;8.60;;;24.10;99.90;;;;;;4933482;29;20031;-75
2022/06/19 04:56:48;;;;;;;10.95;9.02;;;24.20;99.90;;;;;;4950970;28;20130;-75
2022/06/19 04:59:14;;;;;;;11.15;8.20;;;24.30;99.90;;;;;;4952970;29;20031;-75
2022/06/19 05:01:40;;;;;;;13.35;9.27;;;24.20;99.90;;;;;;4952514;29;20054;-75
2022/06/19 05:04:09;;;;;;;9.20;8.30;;;24.20;99.90;;;;;;4950842;29;20400;-76
2022/06/19 05:06:36;;;;;;;9.90;8.25;;;24.30;99.90;;;;;;4952014;29;20023;-75
2022/06/19 05:09:02;;;;;;;11.48;9.02;;;24.40;99.90;;;;;;4951894;29;20516;-75
2022/06/19 05:11:31;;;;;;;9.63;8.15;;;24.40;99.90;;;;;;4951930;29;20038;-75
2022/06/19 05:13:57;;;;;;;10.15;8.48;;;24.10;99.90;;;;;;4954041;29;20023;-75
2022/06/19 05:16:24;;;;;;;9.43;8.55;;;24.40;99.90;;;;;;4950931;28;20411;-75
2022/06/19 05:18:53;;;;;;;9.40;7.93;;;24.50;99.90;;;;;;4946084;29;20023;-75
2022/06/19 05:21:19;;;;;;;10.07;9.00;;;24.40;99.90;;;;;;4951843;29;20056;-75
2022/06/19 05:23:46;;;;;;;9.38;8.52;;;24.50;99.90;;;;;;4951996;29;20032;-75
2022/06/19 05:26:20;;;;;;;12.90;8.98;;;24.60;99.90;;;;;;4952988;29;20023;-75
2022/06/19 05:28:48;;;;;;;10.35;8.77;;;24.70;99.90;;;;;;4951932;29;20392;-75
2022/06/19 05:31:14;;;;;;;10.10;8.88;;;24.60;99.90;;;;;;4951314;29;20408;-75
2022/06/19 05:33:39;;;;;;;9.90;8.75;;;24.70;99.90;;;;;;4950494;28;20023;-75
2022/06/19 05:36:06;;;;;;;10.98;8.93;;;24.70;99.90;;;;;;4951564;29;20027;-75
2022/06/19 05:38:32;;;;;;;10.93;8.65;;;24.90;99.90;;;;;;4951659;29;20409;-75
2022/06/19 05:40:59;;;;;;;10.50;8.77;;;25.00;99.90;;;;;;4953732;29;20036;-76
2022/06/19 05:43:27;;;;;;;10.50;9.07;;;24.90;99.90;;;;;;4951723;29;20031;-75
2022/06/19 05:45:59;;;;;;;10.00;9.10;;;25.10;99.90;;;;;;4951164;29;20027;-75
2022/06/19 05:48:27;;;;;;;9.63;8.70;;;25.10;99.90;;;;;;4950999;28;20063;-75
2022/06/19 05:51:08;;;;;;;9.20;8.27;;;25.00;99.90;;;;;;4950922;28;20058;-75
2022/06/19 05:53:39;;;;;;;9.70;8.77;;;25.00;99.90;;;;;;4936665;29;20079;-75
2022/06/19 05:56:05;;;;;;;9.38;8.38;;;25.00;99.90;;;;;;4949877;28;20437;-75
2022/06/19 05:58:32;;;;;;;11.27;8.93;;;25.00;99.90;;;;;;4951698;29;20031;-75
2022/06/19 06:00:58;;;;;;;10.48;9.38;;;25.00;99.90;;;;;;4951336;29;20535;-75
2022/06/19 06:03:25;;;;;;;11.10;8.68;;;25.10;99.90;;;;;;4949743;29;20110;-75
2022/06/19 06:05:51;;;;;;;11.95;8.90;;;25.10;99.90;;;;;;4951471;28;20579;-75
2022/06/19 06:08:18;;;;;;;10.02;8.80;;;25.30;99.90;;;;;;4954263;29;20403;-76
2022/06/19 06:10:45;;;;;;;9.82;8.77;;;25.20;99.90;;;;;;4956781;29;20027;-75
2022/06/19 06:13:11;;;;;;;11.45;8.73;;;25.30;99.90;;;;;;4953305;28;20039;-76
2022/06/19 06:15:36;;;;;;;9.77;8.77;;;25.30;99.90;;;;;;4954466;29;20393;-76
2022/06/19 06:18:03;;;;;;;11.88;8.75;;;25.40;99.90;;;;;;4953829;29;20035;-76
2022/06/19 06:20:29;;;;;;;11.00;9.05;;;25.60;99.90;;;;;;4937448;29;20035;-77
2022/06/19 06:22:55;;;;;;;10.98;9.00;;;25.60;99.90;;;;;;4956833;29;20117;-76
2022/06/19 06:25:21;;;;;;;10.75;8.65;;;25.60;99.90;;;;;;4954488;29;20087;-77
2022/06/19 06:27:47;;;;;;;15.32;9.73;;;25.60;99.90;;;;;;4954580;29;20031;-77
2022/06/19 06:30:13;;;;;;;11.00;9.13;;;25.60;99.90;;;;;;4954314;29;20061;-77
2022/06/19 06:32:39;;;;;;;9.85;8.60;;;25.70;99.90;;;;;;4952913;28;20032;-81
2022/06/19 06:35:05;;;;;;;11.10;9.32;;;25.70;99.90;;;;;;4956604;29;20082;-76
2022/06/19 06:37:31;;;;;;;13.45;9.48;;;25.70;99.90;;;;;;4954884;29;20102;-83
2022/06/19 06:39:57;;;;;;;9.73;8.75;;;25.90;99.90;;;;;;4937056;29;20031;-76
2022/06/19 06:42:22;;;;;;;12.15;8.93;;;25.80;99.90;;;;;;4954098;29;20094;-79
2022/06/19 06:44:48;;;;;;;11.35;8.43;;;26.00;99.90;;;;;;4954442;29;20027;-80
2022/06/19 06:47:14;;;;;;;12.63;8.80;;;26.00;99.90;;;;;;4953664;28;20039;-79
2022/06/19 06:49:39;;;;;;;9.70;8.70;;;26.10;99.90;;;;;;4955386;29;20031;-79
2022/06/19 06:52:08;;;;;;;10.25;9.25;;;26.30;99.90;;;;;;4954073;29;20043;-79
2022/06/19 06:54:38;;;;;;;9.85;8.85;;;26.30;99.90;;;;;;4954272;29;20020;-80
2022/06/19 06:57:05;;;;;;;9.50;8.60;;;26.20;99.90;;;;;;4936764;29;20043;-79
2022/06/19 06:59:31;;;;;;;11.82;8.60;;;26.40;99.90;;;;;;4954103;29;20034;-78
2022/06/19 07:01:56;;;;;;;10.80;9.00;;;26.50;99.90;;;;;;4953186;28;20082;-79
2022/06/19 07:04:22;;;;;;;11.00;8.70;;;26.40;99.90;;;;;;4953271;29;20122;-78
2022/06/19 07:06:48;;;;;;;9.95;8.85;;;26.60;99.90;;;;;;4952268;28;20062;-79
2022/06/19 07:09:13;;;;;;;10.77;9.13;;;26.70;99.90;;;;;;4954001;28;20094;-79
2022/06/19 07:11:41;;;;;;;10.00;9.00;;;26.60;99.90;;;;;;4953610;29;20866;-79
2022/06/19 07:14:08;;;;;;;9.68;8.68;;;26.70;99.90;;;;;;4955389;29;20031;-79
2022/06/19 07:16:34;;;;;;;14.70;9.15;;;26.80;99.90;;;;;;4952964;29;20028;-78
2022/06/19 07:19:00;;;;;;;10.88;8.10;;;26.80;99.90;;;;;;4953113;29;20035;-78
2022/06/19 07:21:27;;;;;;;11.40;8.73;;;26.80;99.90;;;;;;4951927;29;20463;-79
2022/06/19 07:23:53;;;;;;;10.05;8.98;;;26.90;99.90;;;;;;4952921;28;20159;-79
2022/06/19 07:26:21;;;;;;;9.98;8.80;;;27.00;99.90;;;;;;4953653;28;20051;-79
2022/06/19 07:28:48;;;;;;;11.48;8.98;;;27.10;99.90;;;;;;4953619;29;20092;-78
2022/06/19 07:31:14;;;;;;;8.77;7.90;;;27.10;99.90;;;;;;4952298;28;20058;-78
2022/06/19 07:33:40;;;;;;;9.48;8.48;;;27.20;99.90;;;;;;4953398;28;20035;-78
2022/06/19 07:36:19;;;;;;;9.05;8.15;;;27.30;99.90;;;;;;4953534;28;20480;-79
2022/06/19 07:38:44;;;;;;;11.77;8.95;;;27.20;99.90;;;;;;4939707;29;20026;-79
2022/06/19 07:41:11;;;;;;;11.02;8.52;;;27.40;99.90;;;;;;4954201;29;20043;-78
2022/06/19 07:43:36;;;;;;;14.35;8.55;;;27.60;99.90;;;;;;4954010;29;20019;-79
2022/06/19 07:46:02;;;;;;;9.57;7.97;;;27.90;99.90;;;;;;4951009;29;20524;-79
2022/06/19 07:51:12;;;;;;;12.00;9.02;;;27.70;99.90;;;;;;4953060;29;20046;-80
2022/06/19 07:53:37;;;;;;;10.57;8.85;;;28.00;99.90;;;;;;4953187;29;20031;-82
2022/06/19 07:56:03;;;;;;;13.68;8.07;;;28.00;99.90;;;;;;4955019;29;20110;-79
2022/06/19 07:58:29;;;;;;;10.85;8.30;;;28.00;99.90;;;;;;4952847;29;20114;-79
2022/06/19 08:00:55;;;;;;;10.02;6.43;;;27.90;99.90;;;;;;4951627;29;20046;-78
2022/06/19 08:03:21;;;;;;;10.98;7.88;;;28.10;99.90;;;;;;4952789;29;20027;-79
2022/06/19 08:05:46;;;;;;;11.57;7.60;;;28.00;99.90;;;;;;4952857;29;20531;-78
2022/06/19 08:08:24;;;;;;;11.85;8.65;;;28.20;99.90;;;;;;4953621;29;20096;-79
2022/06/19 08:10:52;;;;;;;9.70;8.13;;;28.20;99.90;;;;;;4953095;29;20444;-79
2022/06/19 08:13:21;;;;;;;10.38;7.80;;;28.20;99.90;;;;;;4952596;29;20027;-79
2022/06/19 08:15:49;;;;;;;10.57;8.30;;;28.40;99.90;;;;;;4951840;28;20110;-79
2022/06/19 08:18:15;;;;;;;10.43;7.40;;;28.30;99.90;;;;;;4952683;29;20165;-78
2022/06/19 08:20:41;;;;;;;9.60;7.72;;;28.50;99.90;;;;;;4952529;28;20089;-79
2022/06/19 08:23:07;;;;;;;10.65;8.65;;;28.50;99.90;;;;;;4954283;29;20106;-79
2022/06/19 08:25:32;;;;;;;16.33;8.55;;;28.60;99.90;;;;;;4953094;29;20031;-80
2022/06/19 08:27:58;;;;;;;10.10;8.00;;;28.60;99.90;;;;;;4952315;29;20496;-79
2022/06/19 08:30:28;;;;;;;12.52;7.82;;;28.50;99.90;;;;;;4950914;28;20408;-79
2022/06/19 08:32:54;;;;;;;10.13;8.98;;;28.80;99.90;;;;;;4952528;28;20078;-79
2022/06/19 08:35:20;;;;;;;11.20;8.32;;;29.00;99.90;;;;;;4952635;29;20032;-79
2022/06/19 08:37:50;;;;;;;11.43;8.20;;;29.20;99.90;;;;;;4952149;29;20488;-78
2022/06/19 08:40:23;;;;;;;8.68;7.78;;;29.20;99.90;;;;;;4952167;28;20043;-78
2022/06/19 08:43:18;;;;;;;10.88;8.05;;;29.00;99.90;;;;;;4952125;29;20027;-79
2022/06/19 08:46:02;;;;;;;8.98;7.78;;;29.10;99.90;;;;;;4948392;28;20042;-79
2022/06/19 08:48:52;;;;;;;9.68;6.95;;;29.40;99.90;;;;;;4952297;29;20114;-78
2022/06/19 08:51:24;;;;;;;10.13;6.80;;;29.40;99.90;;;;;;4952208;29;20126;-79
2022/06/19 08:54:07;;;;;;;9.10;7.22;;;29.30;99.90;;;;;;4952187;29;20490;-78
2022/06/19 08:56:48;;;;;;;10.95;8.07;;;29.60;99.90;;;;;;4952232;29;20023;-79
2022/06/19 08:59:57;;;;;;;13.18;7.97;;;29.80;99.90;;;;;;4952757;29;20114;-79
2022/06/19 09:03:04;;;;;;;11.27;8.32;;;29.90;99.90;;;;;;4950822;29;20445;-79
2022/06/19 09:05:53;;;;;;;9.65;8.20;;;30.20;99.90;;;;;;4951704;29;20032;-79
2022/06/19 09:08:19;;;;;;;11.18;7.75;;;30.40;99.90;;;;;;4950305;28;20046;-79
2022/06/19 09:10:51;;;;;;;10.68;7.70;;;30.40;99.90;;;;;;4953936;29;20027;-79
2022/06/19 09:13:58;;;;;;;8.50;6.95;;;30.60;99.90;;;;;;4949798;28;20035;-79
2022/06/19 09:16:32;;;;;;;8.65;7.68;;;30.30;99.90;;;;;;4951764;29;20031;-79
2022/06/19 09:19:11;;;;;;;9.50;8.50;;;30.40;99.90;;;;;;4951847;29;20086;-79
2022/06/19 09:22:02;;;;;;;9.40;7.28;;;30.70;99.90;;;;;;4951624;28;20427;-79
2022/06/19 09:25:08;;;;;;;12.93;8.52;;;30.80;99.90;;;;;;4951911;29;20027;-79
2022/06/19 09:27:42;;;;;;;10.90;8.23;;;30.80;99.90;;;;;;4933649;28;20520;-79
2022/06/19 09:30:15;;;;;;;8.80;7.20;;;30.80;99.90;;;;;;4951747;29;20051;-78
2022/06/19 09:32:46;;;;;;;9.88;7.20;;;30.50;99.90;;;;;;4937508;29;20126;-79
2022/06/19 09:35:24;;;;;;;7.90;7.10;;;30.70;99.90;;;;;;4953282;29;20366;-79
2022/06/19 09:38:20;;;;;;;8.80;7.43;;;30.80;99.90;;;;;;4951961;29;20118;-78
2022/06/19 09:40:53;;;;;;;11.77;7.75;;;30.90;99.90;;;;;;4951913;28;20039;-79
2022/06/19 09:43:24;;;;;;;8.98;7.57;;;31.00;99.90;;;;;;4954467;28;20621;-79
2022/06/19 09:45:58;;;;;;;11.02;7.53;;;31.20;99.90;;;;;;4955437;29;20110;-79
2022/06/19 09:48:37;;;;;;;10.57;7.40;;;31.30;99.90;;;;;;4955170;29;20038;-79
2022/06/19 09:51:16;;;;;;;9.05;7.90;;;31.20;99.90;;;;;;4954994;29;20065;-79
2022/06/19 09:54:00;;;;;;;8.50;7.40;;;31.70;99.90;;;;;;4941076;29;20058;-78
2022/06/19 09:57:11;;;;;;;8.18;6.50;;;31.60;99.90;;;;;;4954592;28;20095;-79
2022/06/19 09:59:43;;;;;;;9.70;7.28;;;31.30;99.90;;;;;;4940104;29;20046;-79
2022/06/19 10:02:50;;;;;;;10.48;7.32;;;31.20;99.90;;;;;;4956387;29;20039;-79
2022/06/19 10:05:40;;;;;;;11.00;7.38;;;31.30;99.90;;;;;;4875584;29;20045;-79
2022/06/19 10:08:05;;;;;;;11.73;7.82;;;31.60;99.90;;;;;;4860550;29;20037;-79
2022/06/19 10:10:44;;;;;;;9.38;7.47;;;32.10;99.90;;;;;;4873425;29;20093;-79
2022/06/19 10:13:24;;;;;;;10.80;7.40;;;32.20;99.90;;;;;;4870158;29;20041;-78
2022/06/19 10:15:52;;;;;;;8.98;7.00;;;32.00;99.90;;;;;;4873248;29;20067;-78
2022/06/19 10:18:28;;;;;;;12.95;7.80;;;32.10;99.90;;;;;;4873206;29;20037;-80
2022/06/19 10:21:02;;;;;;;13.80;7.20;;;32.40;99.90;;;;;;4874576;29;20045;-79
2022/06/19 10:23:48;;;;;;;10.23;6.90;;;32.40;99.90;;;;;;4861631;29;20498;-79
2022/06/19 10:26:19;;;;;;;11.45;7.18;;;32.20;99.90;;;;;;4875657;29;20060;-80
2022/06/19 10:29:23;;;;;;;11.68;7.40;;;31.90;99.90;;;;;;4874345;29;20623;-79
2022/06/19 10:32:29;;;;;;;10.05;7.43;;;32.20;99.90;;;;;;4863129;29;20061;-79
2022/06/19 10:35:18;;;;;;;13.07;7.53;;;32.30;99.90;;;;;;4877617;29;20057;-79
2022/06/19 10:38:05;;;;;;;9.15;7.75;;;32.20;99.90;;;;;;4860238;29;20044;-79
2022/06/19 10:40:46;;;;;;;8.93;7.70;;;32.50;99.90;;;;;;4872925;29;20548;-80
2022/06/19 10:43:33;;;;;;;9.23;7.57;;;32.50;99.90;;;;;;4951944;29;20039;-80
2022/06/19 10:46:08;;;;;;;10.20;7.78;;;32.40;99.90;;;;;;4954304;29;20023;-79
2022/06/19 10:48:55;;;;;;;10.93;7.60;;;33.00;99.90;;;;;;4953951;29;20106;-79
2022/06/19 10:51:43;;;;;;;11.80;7.68;;;32.50;99.90;;;;;;4952493;28;20389;-79
2022/06/19 10:54:35;;;;;;;14.00;7.60;;;32.20;99.90;;;;;;4952975;28;20031;-80
2022/06/19 10:57:12;;;;;;;10.48;7.57;;;32.40;99.90;;;;;;4943139;29;20118;-79
2022/06/19 10:59:38;;;;;;;10.90;7.93;;;32.80;99.90;;;;;;4939290;29;20031;-79
2022/06/19 11:05:20;;;;;;;8.95;7.88;;;33.10;99.90;;;;;;4951340;28;20097;-78
2022/06/19 11:07:45;;;;;;;9.43;8.30;;;33.30;99.90;;;;;;4955261;29;20035;-79
2022/06/19 11:10:18;;;;;;;10.82;8.38;;;33.20;99.90;;;;;;4953410;29;20039;-79
2022/06/19 11:12:49;;;;;;;13.07;7.55;;;32.70;99.90;;;;;;4953682;29;20034;-79
2022/06/19 11:15:35;;;;;;;8.80;7.82;;;32.90;99.90;;;;;;4953784;29;20031;-79
2022/06/19 11:18:22;;;;;;;10.93;7.88;;;32.80;99.90;;;;;;4953313;28;20027;-79
2022/06/19 11:20:54;;;;;;;9.10;7.80;;;32.90;99.90;;;;;;4945424;28;20039;-79
2022/06/19 11:23:31;;;;;;;9.00;7.55;;;33.00;99.90;;;;;;4954082;28;20027;-79
2022/06/19 11:26:04;;;;;;;9.25;7.97;;;32.90;99.90;;;;;;4954895;29;20437;-79
2022/06/19 11:28:48;;;;;;;9.32;7.90;;;32.80;99.90;;;;;;4953573;28;20528;-78
2022/06/19 11:31:29;;;;;;;8.52;7.63;;;32.90;99.90;;;;;;4953369;28;20156;-79
2022/06/19 11:37:12;;;;;;;8.93;7.68;;;33.10;99.90;;;;;;4952541;29;20034;-79
2022/06/19 11:39:42;;;;;;;11.57;8.25;;;33.70;99.90;;;;;;4953263;29;20086;-79
2022/06/19 11:42:37;;;;;;;10.93;7.97;;;33.60;99.90;;;;;;4953149;29;20527;-79
2022/06/19 11:45:15;;;;;;;8.05;6.68;;;33.60;99.90;;;;;;4941758;29;20023;-80
2022/06/19 11:47:48;;;;;;;10.63;7.60;;;33.10;99.90;;;;;;4936730;29;20121;-80
2022/06/19 11:50:44;;;;;;;10.70;7.78;;;33.60;99.90;;;;;;4952941;28;20047;-79
2022/06/19 11:53:26;;;;;;;9.80;8.10;;;33.50;99.90;;;;;;4950474;28;20499;-79
2022/06/19 11:56:22;;;;;;;8.15;7.30;;;33.80;99.90;;;;;;4953711;29;20027;-79
2022/06/19 11:59:04;;;;;;;8.27;7.15;;;33.60;99.90;;;;;;4953230;29;20062;-79
2022/06/19 12:01:44;;;;;;;8.90;8.00;;;33.50;99.90;;;;;;4952445;29;20035;-78
2022/06/19 12:04:37;;;;;;;11.23;7.57;;;33.70;99.90;;;;;;4952515;28;20485;-78
2022/06/19 12:07:04;;;;;;;8.93;7.25;;;33.90;99.90;;;;;;4942417;29;20379;-79
2022/06/19 12:09:41;;;;;;;10.50;7.40;;;34.80;99.90;;;;;;4952948;29;20424;-79
2022/06/19 12:12:13;;;;;;;8.75;7.82;;;35.40;99.90;;;;;;4952724;29;20031;-78
2022/06/19 12:14:48;;;;;;;7.25;6.57;;;36.50;99.90;;;;;;4938020;29;20130;-79
2022/06/19 12:17:16;;;;;;;13.57;7.25;;;36.20;99.90;;;;;;4952699;28;20033;-78
2022/06/19 12:20:08;;;;;;;7.88;7.03;;;36.60;99.90;;;;;;4953727;29;20030;-78
2022/06/19 12:23:02;;;;;;;7.50;6.35;;;38.60;99.90;;;;;;4847249;29;20050;-78
2022/06/19 12:25:28;;;;;;;8.02;6.50;;;37.30;99.90;;;;;;4845306;29;20045;-79
2022/06/19 12:27:59;;;;;;;7.50;6.80;;;38.40;99.90;;;;;;4846849;29;20041;-78
2022/06/19 12:30:31;;;;;;;8.05;6.65;;;39.10;99.90;;;;;;4846544;29;20050;-78
2022/06/19 12:33:01;;;;;;;9.90;7.38;;;39.80;99.90;;;;;;4848573;29;20150;-78
2022/06/19 12:35:37;;;;;;;7.32;6.60;;;38.90;99.90;;;;;;4842548;29;20722;-78
2022/06/19 12:38:10;;;;;;;9.55;6.85;;;38.60;99.90;;;;;;4854257;29;20026;-78
2022/06/19 12:40:56;;;;;;;9.00;6.43;;;41.30;99.90;;;;;;4846818;29;20083;-79
2022/06/19 12:43:45;;;;;;;11.55;6.30;;;41.40;99.90;;;;;;4846963;29;20134;-79
2022/06/19 12:46:27;;;;;;;7.18;6.30;;;40.70;99.90;;;;;;4817888;29;20589;-79
2022/06/19 12:49:11;;;;;;;8.73;6.90;;;39.00;99.90;;;;;;4814589;29;20497;-79
2022/06/19 12:51:43;;;;;;;7.10;6.50;;;41.20;99.90;;;;;;4809049;29;20077;-77
2022/06/19 12:54:35;;;;;;;8.70;6.05;;;39.90;99.90;;;;;;4816246;29;20075;-79
2022/06/19 12:57:21;;;;;;;8.27;6.72;;;39.30;99.90;;;;;;4788459;29;20124;-77
2022/06/19 13:00:14;;;;;;;11.40;6.07;;;38.90;99.90;;;;;;4855131;29;20049;-78
2022/06/19 13:02:54;;;;;;;9.50;6.18;;;40.20;99.90;;;;;;4860480;29;20113;-77
2022/06/19 13:05:55;;;;;;;6.57;5.32;;;39.90;99.90;;;;;;4873982;29;20029;-79
2022/06/19 13:08:36;;;;;;;9.43;5.85;;;38.00;99.90;;;;;;4872061;29;20062;-79
2022/06/19 13:11:35;;;;;;;9.00;5.30;;;37.80;99.90;;;;;;4875830;29;20057;-79
2022/06/19 13:14:03;;;;;;;8.77;5.53;;;38.40;99.90;;;;;;4875705;29;20040;-79
2022/06/19 13:16:46;;;;;;;10.18;5.65;;;38.80;99.90;;;;;;4872495;29;20111;-80